<?xml version='1.0' encoding='UTF-8'?><gpx version="1.1" creator="JPX - https://github.com/jenetics/jpx" xmlns="http://www.topografix.com/GPX/1/1"><trk><trkseg><trkpt lat="43.85513932695548" lon="12.484525853910384"><ele>483.0</ele><time>2026-04-04T07:46:50.999Z</time></trkpt><trkpt lat="43.855116723418156" lon="12.48442529053881"><ele>482.99999999999994</ele><time>2026-04-04T07:46:51.999Z</time></trkpt><trkpt lat="43.85510243060331" lon="12.484278286798292"><ele>482.99999999999994</ele><time>2026-04-04T07:46:53.999Z</time></trkpt><trkpt lat="43.85514181308646" lon="12.484165682511609"><ele>483.0</ele><time>2026-04-04T07:46:55.999Z</time></trkpt><trkpt lat="43.85521949222534" lon="12.48405478821384"><ele>483.0</ele><time>2026-04-04T07:46:57.999Z</time></trkpt><trkpt lat="43.85527845508515" lon="12.483950461880267"><ele>483.0</ele><time>2026-04-04T07:46:59.999Z</time></trkpt><trkpt lat="43.85534063735009" lon="12.48381618130259"><ele>482.99999999999994</ele><time>2026-04-04T07:47:01.999Z</time></trkpt><trkpt lat="43.85536799194308" lon="12.483713836656891"><ele>482.99999999999994</ele><time>2026-04-04T07:47:03.999Z</time></trkpt><trkpt lat="43.8553805477818" lon="12.483599275667567"><ele>483.0</ele><time>2026-04-04T07:47:05.999Z</time></trkpt><trkpt lat="43.855383188989414" lon="12.48348184040805"><ele>483.0</ele><time>2026-04-04T07:47:07.999Z</time></trkpt><trkpt lat="43.855373794711284" lon="12.483339015311435"><ele>484.59999999999997</ele><time>2026-04-04T07:47:09.999Z</time></trkpt><trkpt lat="43.85531542813005" lon="12.483228774873902"><ele>486.19999999999993</ele><time>2026-04-04T07:47:12.998Z</time></trkpt><trkpt lat="43.855182452343506" lon="12.483154917330884"><ele>487.8</ele><time>2026-04-04T07:47:14.998Z</time></trkpt><trkpt lat="43.85510881533057" lon="12.483112646060983"><ele>489.4</ele><time>2026-04-04T07:47:15.998Z</time></trkpt><trkpt lat="43.85502654584247" lon="12.483090590898387"><ele>491.0</ele><time>2026-04-04T07:47:16.998Z</time></trkpt><trkpt lat="43.854932393084276" lon="12.483000710297768"><ele>494.0</ele><time>2026-04-04T07:47:18.998Z</time></trkpt><trkpt lat="43.85485361365583" lon="12.482933186929118"><ele>497.0</ele><time>2026-04-04T07:47:19.998Z</time></trkpt><trkpt lat="43.8547910119206" lon="12.482867878288483"><ele>500.0</ele><time>2026-04-04T07:47:20.998Z</time></trkpt><trkpt lat="43.85471891054711" lon="12.482789500447492"><ele>503.0</ele><time>2026-04-04T07:47:21.998Z</time></trkpt><trkpt lat="43.85465808719565" lon="12.4827400269537"><ele>506.0</ele><time>2026-04-04T07:47:22.998Z</time></trkpt><trkpt lat="43.854527905247366" lon="12.482641542219914"><ele>506.0</ele><time>2026-04-04T07:47:24.998Z</time></trkpt><trkpt lat="43.854451122075574" lon="12.482616822613378"><ele>506.0</ele><time>2026-04-04T07:47:25.998Z</time></trkpt><trkpt lat="43.854359825985135" lon="12.482577306384036"><ele>506.0</ele><time>2026-04-04T07:47:27.998Z</time></trkpt><trkpt lat="43.85427010927264" lon="12.48256469220284"><ele>506.0</ele><time>2026-04-04T07:47:28.998Z</time></trkpt><trkpt lat="43.85416218710195" lon="12.482557576498802"><ele>506.0</ele><time>2026-04-04T07:47:29.998Z</time></trkpt><trkpt lat="43.85404315680378" lon="12.482544519701616"><ele>508.20000000000005</ele><time>2026-04-04T07:47:30.998Z</time></trkpt><trkpt lat="43.85397306748545" lon="12.482517269731835"><ele>510.40000000000003</ele><time>2026-04-04T07:47:31.998Z</time></trkpt><trkpt lat="43.85382352635844" lon="12.482434259940796"><ele>512.6</ele><time>2026-04-04T07:47:33.998Z</time></trkpt><trkpt lat="43.85373368996483" lon="12.482376495437622"><ele>514.8000000000001</ele><time>2026-04-04T07:47:34.998Z</time></trkpt><trkpt lat="43.853655668770344" lon="12.482335242683726"><ele>517.0</ele><time>2026-04-04T07:47:35.998Z</time></trkpt><trkpt lat="43.85356119702874" lon="12.48231264099358"><ele>517.0</ele><time>2026-04-04T07:47:36.998Z</time></trkpt><trkpt lat="43.85346423345896" lon="12.48228378342136"><ele>517.0</ele><time>2026-04-04T07:47:37.998Z</time></trkpt><trkpt lat="43.85336317528163" lon="12.482236276205684"><ele>517.0</ele><time>2026-04-04T07:47:38.998Z</time></trkpt><trkpt lat="43.85326755564106" lon="12.482196389389923"><ele>517.0</ele><time>2026-04-04T07:47:39.998Z</time></trkpt><trkpt lat="43.85317931941347" lon="12.48216349481846"><ele>517.0</ele><time>2026-04-04T07:47:41.998Z</time></trkpt><trkpt lat="43.85311792286287" lon="12.482184492685773"><ele>517.2</ele><time>2026-04-04T07:48:05.999Z</time></trkpt><trkpt lat="43.853042165490926" lon="12.482223307135582"><ele>517.4000000000001</ele><time>2026-04-04T07:48:08.999Z</time></trkpt><trkpt lat="43.852974695527415" lon="12.482284848202612"><ele>517.5999999999999</ele><time>2026-04-04T07:48:10.999Z</time></trkpt><trkpt lat="43.852885964451886" lon="12.482345604663927"><ele>517.8</ele><time>2026-04-04T07:48:12.999Z</time></trkpt><trkpt lat="43.85281647805355" lon="12.482356537731775"><ele>518.0</ele><time>2026-04-04T07:48:14.999Z</time></trkpt><trkpt lat="43.85269860056463" lon="12.482390136079983"><ele>518.0</ele><time>2026-04-04T07:48:16.999Z</time></trkpt><trkpt lat="43.85262488518088" lon="12.482431989711543"><ele>518.0</ele><time>2026-04-04T07:48:17.999Z</time></trkpt><trkpt lat="43.852547732605906" lon="12.482414921615366"><ele>518.0</ele><time>2026-04-04T07:48:18.999Z</time></trkpt><trkpt lat="43.852481004394605" lon="12.482441399752496"><ele>518.0</ele><time>2026-04-04T07:48:19.999Z</time></trkpt><trkpt lat="43.852397646048175" lon="12.482441052165143"><ele>518.0</ele><time>2026-04-04T07:48:21.999Z</time></trkpt><trkpt lat="43.852327546243686" lon="12.48241911956776"><ele>518.0</ele><time>2026-04-04T07:48:24.999Z</time></trkpt><trkpt lat="43.85221954205331" lon="12.482372475006443"><ele>519.1666666666666</ele><time>2026-04-04T07:48:37.999Z</time></trkpt><trkpt lat="43.8521583695024" lon="12.482304714398769"><ele>520.3333333333333</ele><time>2026-04-04T07:48:38.999Z</time></trkpt><trkpt lat="43.8520704637116" lon="12.48224688134497"><ele>521.5</ele><time>2026-04-04T07:48:39.999Z</time></trkpt><trkpt lat="43.85200956100833" lon="12.482209121129333"><ele>522.6666666666666</ele><time>2026-04-04T07:48:40.999Z</time></trkpt><trkpt lat="43.85194145445283" lon="12.482185846897305"><ele>523.8333333333334</ele><time>2026-04-04T07:48:41.999Z</time></trkpt><trkpt lat="43.8518182566234" lon="12.482201731507153"><ele>525.0</ele><time>2026-04-04T07:48:43.999Z</time></trkpt><trkpt lat="43.85171459359058" lon="12.482186277183418"><ele>526.0</ele><time>2026-04-04T07:48:44.999Z</time></trkpt><trkpt lat="43.851636747950295" lon="12.482186569505"><ele>527.0</ele><time>2026-04-04T07:48:45.999Z</time></trkpt><trkpt lat="43.8515408864756" lon="12.482185452338888"><ele>528.0</ele><time>2026-04-04T07:48:46.999Z</time></trkpt><trkpt lat="43.85145431488437" lon="12.482205064435483"><ele>529.0</ele><time>2026-04-04T07:48:47.999Z</time></trkpt><trkpt lat="43.85137911199786" lon="12.482177476392929"><ele>530.0</ele><time>2026-04-04T07:48:48.999Z</time></trkpt><trkpt lat="43.851290605676795" lon="12.482194730036097"><ele>531.0</ele><time>2026-04-04T07:48:49.999Z</time></trkpt><trkpt lat="43.85119816297206" lon="12.482188036058467"><ele>531.0</ele><time>2026-04-04T07:48:50.999Z</time></trkpt><trkpt lat="43.85112715016658" lon="12.482171403443546"><ele>531.0</ele><time>2026-04-04T07:48:51.999Z</time></trkpt><trkpt lat="43.85105697804439" lon="12.48216766161016"><ele>531.0</ele><time>2026-04-04T07:48:53.999Z</time></trkpt><trkpt lat="43.850989801683944" lon="12.482134369656507"><ele>531.0</ele><time>2026-04-04T07:48:54.999Z</time></trkpt><trkpt lat="43.85089375497083" lon="12.48210890926315"><ele>531.0</ele><time>2026-04-04T07:48:55.999Z</time></trkpt><trkpt lat="43.850814884840005" lon="12.482061012224722"><ele>531.0</ele><time>2026-04-04T07:48:56.999Z</time></trkpt><trkpt lat="43.8506923387026" lon="12.48203763663302"><ele>531.4</ele><time>2026-04-04T07:48:58.999Z</time></trkpt><trkpt lat="43.85059592054816" lon="12.48199244677306"><ele>531.8</ele><time>2026-04-04T07:49:00.999Z</time></trkpt><trkpt lat="43.850532918309476" lon="12.482143995075234"><ele>532.1999999999999</ele><time>2026-04-04T07:49:06.999Z</time></trkpt><trkpt lat="43.85047529121345" lon="12.482257287899149"><ele>532.6</ele><time>2026-04-04T07:49:08.999Z</time></trkpt><trkpt lat="43.85042394420287" lon="12.482366384532861"><ele>533.0</ele><time>2026-04-04T07:49:10.999Z</time></trkpt><trkpt lat="43.850383443315714" lon="12.4824433403795"><ele>533.0</ele><time>2026-04-04T07:49:11.999Z</time></trkpt><trkpt lat="43.85035176701399" lon="12.482531408483133"><ele>533.0</ele><time>2026-04-04T07:49:12.999Z</time></trkpt><trkpt lat="43.85033568821614" lon="12.48262191288955"><ele>533.0</ele><time>2026-04-04T07:49:13.999Z</time></trkpt><trkpt lat="43.85029356365533" lon="12.482717018467698"><ele>533.0</ele><time>2026-04-04T07:49:14.999Z</time></trkpt><trkpt lat="43.8502467555369" lon="12.482828585631534"><ele>533.0</ele><time>2026-04-04T07:49:15.999Z</time></trkpt><trkpt lat="43.85020386206336" lon="12.482933704023358"><ele>533.0</ele><time>2026-04-04T07:49:16.999Z</time></trkpt><trkpt lat="43.85016054001161" lon="12.483128756422431"><ele>531.5</ele><time>2026-04-04T07:49:18.999Z</time></trkpt><trkpt lat="43.85013926691443" lon="12.483244305742819"><ele>530.0</ele><time>2026-04-04T07:49:19.999Z</time></trkpt><trkpt lat="43.85011468121922" lon="12.483346523507207"><ele>528.5</ele><time>2026-04-04T07:49:20.999Z</time></trkpt><trkpt lat="43.85008439342731" lon="12.483442698329336"><ele>527.0</ele><time>2026-04-04T07:49:21.999Z</time></trkpt><trkpt lat="43.850034986003145" lon="12.483522114411059"><ele>525.5</ele><time>2026-04-04T07:49:22.999Z</time></trkpt><trkpt lat="43.84999128541792" lon="12.483609346998799"><ele>524.0</ele><time>2026-04-04T07:49:23.999Z</time></trkpt><trkpt lat="43.84993388332262" lon="12.483753864791408"><ele>523.8</ele><time>2026-04-04T07:49:25.998Z</time></trkpt><trkpt lat="43.84990317911534" lon="12.483841671269523"><ele>523.5999999999999</ele><time>2026-04-04T07:49:26.998Z</time></trkpt><trkpt lat="43.849874040042806" lon="12.483940499886202"><ele>523.4</ele><time>2026-04-04T07:49:27.998Z</time></trkpt><trkpt lat="43.849852474888735" lon="12.484096577126879"><ele>523.1999999999999</ele><time>2026-04-04T07:49:29.998Z</time></trkpt><trkpt lat="43.84984272997002" lon="12.48425300125258"><ele>523.0</ele><time>2026-04-04T07:49:31.998Z</time></trkpt><trkpt lat="43.849822413525764" lon="12.48440811232639"><ele>523.0</ele><time>2026-04-04T07:49:33.998Z</time></trkpt><trkpt lat="43.849822051764654" lon="12.484562272587251"><ele>523.0</ele><time>2026-04-04T07:49:35.998Z</time></trkpt><trkpt lat="43.84980593766227" lon="12.484711943828973"><ele>523.0</ele><time>2026-04-04T07:49:37.998Z</time></trkpt><trkpt lat="43.84981228604056" lon="12.48485527042426"><ele>523.0</ele><time>2026-04-04T07:49:39.998Z</time></trkpt><trkpt lat="43.849798365687434" lon="12.484979456036863"><ele>523.0</ele><time>2026-04-04T07:49:41.998Z</time></trkpt><trkpt lat="43.84980448584708" lon="12.48513133829944"><ele>521.6666666666667</ele><time>2026-04-04T07:49:54.998Z</time></trkpt><trkpt lat="43.84981169558363" lon="12.48525779545604"><ele>520.3333333333334</ele><time>2026-04-04T07:49:56.998Z</time></trkpt><trkpt lat="43.84982397002401" lon="12.485367452611111"><ele>519.0</ele><time>2026-04-04T07:49:59.998Z</time></trkpt><trkpt lat="43.84982631805166" lon="12.485455068554652"><ele>517.6666666666666</ele><time>2026-04-04T07:50:01.998Z</time></trkpt><trkpt lat="43.84984355309223" lon="12.485575091752407"><ele>516.3333333333333</ele><time>2026-04-04T07:50:04.998Z</time></trkpt><trkpt lat="43.84985903650735" lon="12.485671699005765"><ele>515.0</ele><time>2026-04-04T07:50:08Z</time></trkpt><trkpt lat="43.84987619339199" lon="12.48579821684085"><ele>513.1666666666666</ele><time>2026-04-04T07:50:11Z</time></trkpt><trkpt lat="43.84989437609102" lon="12.485886873159327"><ele>511.3333333333333</ele><time>2026-04-04T07:50:13Z</time></trkpt><trkpt lat="43.8499106713323" lon="12.485999590292646"><ele>509.5</ele><time>2026-04-04T07:50:15Z</time></trkpt><trkpt lat="43.849927277346325" lon="12.486106071561952"><ele>507.66666666666663</ele><time>2026-04-04T07:50:17Z</time></trkpt><trkpt lat="43.84994260519826" lon="12.486207197712622"><ele>505.8333333333333</ele><time>2026-04-04T07:50:19Z</time></trkpt><trkpt lat="43.84994158356089" lon="12.486338928638988"><ele>504.0</ele><time>2026-04-04T07:50:21Z</time></trkpt><trkpt lat="43.84995276252521" lon="12.48644712684482"><ele>502.3333333333333</ele><time>2026-04-04T07:50:24Z</time></trkpt><trkpt lat="43.84997676937805" lon="12.486532752231806"><ele>500.66666666666663</ele><time>2026-04-04T07:50:27Z</time></trkpt><trkpt lat="43.84998348164067" lon="12.486667701426809"><ele>499.0</ele><time>2026-04-04T07:50:47.999Z</time></trkpt><trkpt lat="43.84998568472062" lon="12.486775294992183"><ele>497.3333333333333</ele><time>2026-04-04T07:50:49.999Z</time></trkpt><trkpt lat="43.84999870438989" lon="12.486867006573705"><ele>495.66666666666663</ele><time>2026-04-04T07:50:51.999Z</time></trkpt><trkpt lat="43.85000717440406" lon="12.486981688162539"><ele>494.0</ele><time>2026-04-04T07:50:53.999Z</time></trkpt><trkpt lat="43.850004690632964" lon="12.487084799624936"><ele>492.3333333333333</ele><time>2026-04-04T07:50:55.999Z</time></trkpt><trkpt lat="43.85000218814993" lon="12.48720997352144"><ele>490.66666666666663</ele><time>2026-04-04T07:50:58.999Z</time></trkpt><trkpt lat="43.84998570313269" lon="12.487305096009374"><ele>489.0</ele><time>2026-04-04T07:51:00.999Z</time></trkpt><trkpt lat="43.84995854594207" lon="12.487408472540693"><ele>487.33333333333337</ele><time>2026-04-04T07:51:02.999Z</time></trkpt><trkpt lat="43.849924889064646" lon="12.487487643321606"><ele>485.6666666666667</ele><time>2026-04-04T07:51:04.999Z</time></trkpt><trkpt lat="43.8498708894972" lon="12.487550811126654"><ele>484.0</ele><time>2026-04-04T07:51:06.999Z</time></trkpt><trkpt lat="43.84975998579111" lon="12.487650121787674"><ele>484.00000000000006</ele><time>2026-04-04T07:51:08.999Z</time></trkpt><trkpt lat="43.849684262007706" lon="12.487703869098254"><ele>484.0</ele><time>2026-04-04T07:51:09.999Z</time></trkpt><trkpt lat="43.84961379526014" lon="12.48778332969147"><ele>484.0</ele><time>2026-04-04T07:51:11.999Z</time></trkpt><trkpt lat="43.849566349006416" lon="12.487889295340151"><ele>484.0</ele><time>2026-04-04T07:51:34.999Z</time></trkpt><trkpt lat="43.84956406423779" lon="12.487985745969127"><ele>484.00000000000006</ele><time>2026-04-04T07:51:42.999Z</time></trkpt><trkpt lat="43.84955030510568" lon="12.488118824929284"><ele>484.0</ele><time>2026-04-04T07:51:45.999Z</time></trkpt><trkpt lat="43.84954500658443" lon="12.488225320737806"><ele>484.1428571428571</ele><time>2026-04-04T07:51:47.998Z</time></trkpt><trkpt lat="43.849581551020066" lon="12.48833293155954"><ele>484.2857142857142</ele><time>2026-04-04T07:53:59.998Z</time></trkpt><trkpt lat="43.849623985325266" lon="12.488422019518833"><ele>484.42857142857144</ele><time>2026-04-04T07:54:01.998Z</time></trkpt><trkpt lat="43.849648542808" lon="12.488508242779652"><ele>484.57142857142856</ele><time>2026-04-04T07:54:03.998Z</time></trkpt><trkpt lat="43.84966413794503" lon="12.488595376503435"><ele>484.7142857142857</ele><time>2026-04-04T07:54:04.998Z</time></trkpt><trkpt lat="43.8496909888272" lon="12.488699495030605"><ele>484.8571428571429</ele><time>2026-04-04T07:54:05.998Z</time></trkpt><trkpt lat="43.849694755763736" lon="12.48879378407867"><ele>485.00000000000006</ele><time>2026-04-04T07:54:06.998Z</time></trkpt><trkpt lat="43.849715781897174" lon="12.488891667965763"><ele>485.00000000000006</ele><time>2026-04-04T07:54:09.998Z</time></trkpt><trkpt lat="43.84975161383922" lon="12.488967169305585"><ele>485.0</ele><time>2026-04-04T07:56:37Z</time></trkpt><trkpt lat="43.84971776768211" lon="12.488893532623894"><ele>485.00000000000006</ele><time>2026-04-04T07:56:41Z</time></trkpt><trkpt lat="43.84970651976599" lon="12.488796579723918"><ele>485.00000000000006</ele><time>2026-04-04T07:56:46Z</time></trkpt><trkpt lat="43.849705400150995" lon="12.48869070713269"><ele>485.0</ele><time>2026-04-04T07:57:03Z</time></trkpt><trkpt lat="43.84968162626155" lon="12.48857175193975"><ele>485.00000000000006</ele><time>2026-04-04T07:57:05Z</time></trkpt><trkpt lat="43.84962714860157" lon="12.488493320023911"><ele>485.00000000000006</ele><time>2026-04-04T07:57:07Z</time></trkpt><trkpt lat="43.84960274872991" lon="12.488380708761929"><ele>484.8333333333333</ele><time>2026-04-04T07:57:09Z</time></trkpt><trkpt lat="43.849572947768024" lon="12.488244486445574"><ele>484.66666666666663</ele><time>2026-04-04T07:57:11Z</time></trkpt><trkpt lat="43.84959438520568" lon="12.48815077119336"><ele>484.5</ele><time>2026-04-04T07:57:14Z</time></trkpt><trkpt lat="43.84960594934992" lon="12.488064401020194"><ele>484.33333333333337</ele><time>2026-04-04T07:57:15.999Z</time></trkpt><trkpt lat="43.84959390314543" lon="12.48796406555042"><ele>484.1666666666667</ele><time>2026-04-04T07:57:17.999Z</time></trkpt><trkpt lat="43.849613115719976" lon="12.487863966053572"><ele>484.0</ele><time>2026-04-04T07:57:19.999Z</time></trkpt><trkpt lat="43.84967766331132" lon="12.487787155626872"><ele>484.00000000000006</ele><time>2026-04-04T07:57:21.999Z</time></trkpt><trkpt lat="43.84974644810871" lon="12.48772076163438"><ele>484.0</ele><time>2026-04-04T07:57:32.999Z</time></trkpt><trkpt lat="43.84980600027698" lon="12.48767941270989"><ele>484.0</ele><time>2026-04-04T07:57:33.999Z</time></trkpt><trkpt lat="43.84986895848295" lon="12.487629942124713"><ele>484.0</ele><time>2026-04-04T07:57:34.999Z</time></trkpt><trkpt lat="43.84995386584498" lon="12.487539682460792"><ele>484.00000000000006</ele><time>2026-04-04T07:57:36.999Z</time></trkpt><trkpt lat="43.849982386742596" lon="12.487448170453646"><ele>484.0</ele><time>2026-04-04T07:57:38.999Z</time></trkpt><trkpt lat="43.850020699024185" lon="12.487352604095229"><ele>484.0</ele><time>2026-04-04T07:57:40.999Z</time></trkpt><trkpt lat="43.850034677143185" lon="12.48722179726551"><ele>484.0</ele><time>2026-04-04T07:57:42.999Z</time></trkpt><trkpt lat="43.85003493509376" lon="12.487101999992236"><ele>484.0</ele><time>2026-04-04T07:57:44.999Z</time></trkpt><trkpt lat="43.85002508683668" lon="12.486947993903717"><ele>484.0</ele><time>2026-04-04T07:57:46.999Z</time></trkpt><trkpt lat="43.850012271260894" lon="12.48677147811787"><ele>484.0</ele><time>2026-04-04T07:57:48.999Z</time></trkpt><trkpt lat="43.849999815678" lon="12.486611974923195"><ele>486.0</ele><time>2026-04-04T07:57:50.999Z</time></trkpt><trkpt lat="43.849986197014296" lon="12.48644554104031"><ele>488.0</ele><time>2026-04-04T07:57:52.999Z</time></trkpt><trkpt lat="43.849961634103806" lon="12.486361639196588"><ele>490.0</ele><time>2026-04-04T07:57:53.999Z</time></trkpt><trkpt lat="43.849955529070705" lon="12.486213422601072"><ele>492.0</ele><time>2026-04-04T07:57:55.999Z</time></trkpt><trkpt lat="43.849931233043264" lon="12.486050574344297"><ele>494.0</ele><time>2026-04-04T07:57:57.999Z</time></trkpt><trkpt lat="43.84990750297074" lon="12.485914509745859"><ele>496.0</ele><time>2026-04-04T07:57:59.999Z</time></trkpt><trkpt lat="43.84988779264267" lon="12.485785946237115"><ele>498.0</ele><time>2026-04-04T07:58:01.999Z</time></trkpt><trkpt lat="43.849868091150334" lon="12.485661349812307"><ele>500.0</ele><time>2026-04-04T07:58:03.999Z</time></trkpt><trkpt lat="43.84984416503311" lon="12.485502146054372"><ele>502.0</ele><time>2026-04-04T07:58:05.999Z</time></trkpt><trkpt lat="43.84983820939967" lon="12.48539344961946"><ele>504.0</ele><time>2026-04-04T07:58:07.999Z</time></trkpt><trkpt lat="43.849836671278574" lon="12.485294725337306"><ele>506.2</ele><time>2026-04-04T07:58:08.998Z</time></trkpt><trkpt lat="43.849820336750646" lon="12.485103623543361"><ele>508.4</ele><time>2026-04-04T07:58:10.998Z</time></trkpt><trkpt lat="43.84981280800689" lon="12.485009096917231"><ele>510.6</ele><time>2026-04-04T07:58:11.998Z</time></trkpt><trkpt lat="43.849830103487854" lon="12.484918999721534"><ele>512.8</ele><time>2026-04-04T07:58:12.998Z</time></trkpt><trkpt lat="43.849821137613624" lon="12.484777555667248"><ele>515.0</ele><time>2026-04-04T07:58:14.998Z</time></trkpt><trkpt lat="43.84983479727422" lon="12.484664996948313"><ele>516.6</ele><time>2026-04-04T07:58:26.998Z</time></trkpt><trkpt lat="43.84984314141204" lon="12.484532301727523"><ele>518.2</ele><time>2026-04-04T07:58:28.998Z</time></trkpt><trkpt lat="43.84984300577224" lon="12.48441002779399"><ele>519.8</ele><time>2026-04-04T07:58:31Z</time></trkpt><trkpt lat="43.849852181033896" lon="12.484253605263723"><ele>521.4</ele><time>2026-04-04T07:58:33Z</time></trkpt><trkpt lat="43.84985929225442" lon="12.484159388947948"><ele>523.0</ele><time>2026-04-04T07:58:34Z</time></trkpt><trkpt lat="43.84988228095216" lon="12.48399677092397"><ele>523.0</ele><time>2026-04-04T07:58:36Z</time></trkpt><trkpt lat="43.84991639192708" lon="12.48384594260274"><ele>523.0</ele><time>2026-04-04T07:58:38Z</time></trkpt><trkpt lat="43.84995801029942" lon="12.483736570575596"><ele>523.0</ele><time>2026-04-04T07:58:39Z</time></trkpt><trkpt lat="43.850009128034195" lon="12.483618243425205"><ele>523.0</ele><time>2026-04-04T07:58:40Z</time></trkpt><trkpt lat="43.8500596733668" lon="12.483527809790717"><ele>523.0</ele><time>2026-04-04T07:58:41Z</time></trkpt><trkpt lat="43.850095752108025" lon="12.48345140335859"><ele>522.0</ele><time>2026-04-04T07:58:42Z</time></trkpt><trkpt lat="43.85014720820813" lon="12.483301485761528"><ele>521.0</ele><time>2026-04-04T07:58:44Z</time></trkpt><trkpt lat="43.85017447875939" lon="12.48319505937434"><ele>520.0</ele><time>2026-04-04T07:58:45Z</time></trkpt><trkpt lat="43.8501932295299" lon="12.483104519557651"><ele>519.0</ele><time>2026-04-04T07:58:46Z</time></trkpt><trkpt lat="43.850214985387254" lon="12.483009018816626"><ele>518.0</ele><time>2026-04-04T07:58:47Z</time></trkpt><trkpt lat="43.8502372667927" lon="12.482915026555323"><ele>517.0</ele><time>2026-04-04T07:58:48Z</time></trkpt><trkpt lat="43.85028936804961" lon="12.482780999384993"><ele>519.6666666666667</ele><time>2026-04-04T07:58:50Z</time></trkpt><trkpt lat="43.850323583374" lon="12.482691206219583"><ele>522.3333333333334</ele><time>2026-04-04T07:58:51Z</time></trkpt><trkpt lat="43.8503707204461" lon="12.48258036951094"><ele>525.0</ele><time>2026-04-04T07:58:52Z</time></trkpt><trkpt lat="43.85042335463372" lon="12.482467319160543"><ele>527.6666666666666</ele><time>2026-04-04T07:58:53Z</time></trkpt><trkpt lat="43.850462600402906" lon="12.482378076509638"><ele>530.3333333333333</ele><time>2026-04-04T07:58:54Z</time></trkpt><trkpt lat="43.85051135998867" lon="12.482277645860767"><ele>533.0</ele><time>2026-04-04T07:58:55Z</time></trkpt><trkpt lat="43.85056331657917" lon="12.48214509012218"><ele>537.4</ele><time>2026-04-04T07:58:57Z</time></trkpt><trkpt lat="43.85058577527323" lon="12.482015213624601"><ele>541.8</ele><time>2026-04-04T07:58:59Z</time></trkpt><trkpt lat="43.850517671653236" lon="12.481973066349456"><ele>546.2</ele><time>2026-04-04T07:59:13.999Z</time></trkpt><trkpt lat="43.8504209343296" lon="12.481900280270885"><ele>550.6</ele><time>2026-04-04T07:59:15.999Z</time></trkpt><trkpt lat="43.85031329024262" lon="12.481820338267266"><ele>555.0</ele><time>2026-04-04T07:59:17.999Z</time></trkpt><trkpt lat="43.85022222305359" lon="12.481675940294068"><ele>555.0</ele><time>2026-04-04T07:59:19.999Z</time></trkpt><trkpt lat="43.85015000424836" lon="12.481610435893707"><ele>555.0</ele><time>2026-04-04T07:59:20.999Z</time></trkpt><trkpt lat="43.85009316579256" lon="12.481563851093272"><ele>555.0</ele><time>2026-04-04T07:59:21.999Z</time></trkpt><trkpt lat="43.85002970849331" lon="12.481453896345224"><ele>555.0</ele><time>2026-04-04T07:59:23.999Z</time></trkpt><trkpt lat="43.850015805569925" lon="12.481310266146194"><ele>555.0</ele><time>2026-04-04T07:59:25.999Z</time></trkpt><trkpt lat="43.849998851373655" lon="12.481209176431864"><ele>555.0</ele><time>2026-04-04T07:59:26.999Z</time></trkpt><trkpt lat="43.84994202092639" lon="12.481064027067779"><ele>555.2</ele><time>2026-04-04T07:59:28.999Z</time></trkpt><trkpt lat="43.84987098055189" lon="12.48093710083266"><ele>555.4</ele><time>2026-04-04T07:59:30.999Z</time></trkpt><trkpt lat="43.8497673960477" lon="12.48081691740712"><ele>555.6</ele><time>2026-04-04T07:59:32.999Z</time></trkpt><trkpt lat="43.84969059966585" lon="12.48075900244961"><ele>555.8</ele><time>2026-04-04T07:59:33.999Z</time></trkpt><trkpt lat="43.84962621985127" lon="12.480717597346453"><ele>556.0</ele><time>2026-04-04T07:59:34.999Z</time></trkpt><trkpt lat="43.84953612704265" lon="12.480662349049773"><ele>556.0</ele><time>2026-04-04T07:59:36.999Z</time></trkpt><trkpt lat="43.849449149867255" lon="12.480586408271796"><ele>556.0</ele><time>2026-04-04T07:59:38.999Z</time></trkpt><trkpt lat="43.849451931847845" lon="12.480457616383273"><ele>556.0</ele><time>2026-04-04T07:59:39.999Z</time></trkpt><trkpt lat="43.84932799703622" lon="12.480304344513849"><ele>556.0</ele><time>2026-04-04T07:59:41.999Z</time></trkpt><trkpt lat="43.849270829776884" lon="12.480238910264196"><ele>556.0</ele><time>2026-04-04T07:59:42.999Z</time></trkpt><trkpt lat="43.849213570334484" lon="12.480174093514947"><ele>554.1666666666667</ele><time>2026-04-04T07:59:43.999Z</time></trkpt><trkpt lat="43.849157771204375" lon="12.48011123889628"><ele>552.3333333333334</ele><time>2026-04-04T07:59:44.999Z</time></trkpt><trkpt lat="43.84909623577061" lon="12.480066946344952"><ele>550.5</ele><time>2026-04-04T07:59:45.999Z</time></trkpt><trkpt lat="43.84902457059676" lon="12.479960757547545"><ele>548.6666666666666</ele><time>2026-04-04T07:59:46.999Z</time></trkpt><trkpt lat="43.84893431328042" lon="12.479884385817932"><ele>546.8333333333333</ele><time>2026-04-04T07:59:47.999Z</time></trkpt><trkpt lat="43.84887959007797" lon="12.47978625859643"><ele>545.0</ele><time>2026-04-04T07:59:48.999Z</time></trkpt><trkpt lat="43.848824610111215" lon="12.479708733044284"><ele>545.5</ele><time>2026-04-04T07:59:49.999Z</time></trkpt><trkpt lat="43.84873422639053" lon="12.479552869702228"><ele>546.0</ele><time>2026-04-04T07:59:51.999Z</time></trkpt><trkpt lat="43.84868439029135" lon="12.479488347132117"><ele>546.5</ele><time>2026-04-04T07:59:52.999Z</time></trkpt><trkpt lat="43.848632162830995" lon="12.479433744502813"><ele>547.0</ele><time>2026-04-04T07:59:53.999Z</time></trkpt><trkpt lat="43.848568479088854" lon="12.479370477342272"><ele>547.5</ele><time>2026-04-04T08:00:21.998Z</time></trkpt><trkpt lat="43.8485148262666" lon="12.479318028252033"><ele>548.0</ele><time>2026-04-04T08:00:22.998Z</time></trkpt><trkpt lat="43.84845440473048" lon="12.47926040670968"><ele>545.8</ele><time>2026-04-04T08:00:23.998Z</time></trkpt><trkpt lat="43.84838042086555" lon="12.479188088864044"><ele>543.5999999999999</ele><time>2026-04-04T08:00:24.998Z</time></trkpt><trkpt lat="43.848312754343134" lon="12.479109510560786"><ele>541.4000000000001</ele><time>2026-04-04T08:00:25.998Z</time></trkpt><trkpt lat="43.84823965695991" lon="12.479011594646417"><ele>539.2</ele><time>2026-04-04T08:00:26.998Z</time></trkpt><trkpt lat="43.848169692219045" lon="12.47891968369949"><ele>537.0</ele><time>2026-04-04T08:00:27.998Z</time></trkpt><trkpt lat="43.848100514511124" lon="12.4788445616881"><ele>537.0</ele><time>2026-04-04T08:00:28.998Z</time></trkpt><trkpt lat="43.84802955031691" lon="12.478774957019663"><ele>537.0</ele><time>2026-04-04T08:00:29.998Z</time></trkpt><trkpt lat="43.84797069167539" lon="12.478716987343304"><ele>537.0</ele><time>2026-04-04T08:00:30.998Z</time></trkpt><trkpt lat="43.84791961663951" lon="12.478628414891954"><ele>537.0</ele><time>2026-04-04T08:00:31.998Z</time></trkpt><trkpt lat="43.847845995088505" lon="12.478539793637893"><ele>537.0</ele><time>2026-04-04T08:00:32.998Z</time></trkpt><trkpt lat="43.847783381538164" lon="12.478460469135063"><ele>537.0</ele><time>2026-04-04T08:00:33.998Z</time></trkpt><trkpt lat="43.847725407799025" lon="12.47838117588727"><ele>536.5</ele><time>2026-04-04T08:00:34.998Z</time></trkpt><trkpt lat="43.84766565934109" lon="12.47832006742709"><ele>536.0</ele><time>2026-04-04T08:00:35.998Z</time></trkpt><trkpt lat="43.847618280239175" lon="12.47823406396313"><ele>535.5</ele><time>2026-04-04T08:00:37Z</time></trkpt><trkpt lat="43.847574983769384" lon="12.478170140342439"><ele>535.0</ele><time>2026-04-04T08:00:38Z</time></trkpt><trkpt lat="43.84750853034605" lon="12.478032430490304"><ele>534.5</ele><time>2026-04-04T08:00:40Z</time></trkpt><trkpt lat="43.84749096988061" lon="12.477932245067969"><ele>534.0</ele><time>2026-04-04T08:00:41Z</time></trkpt><trkpt lat="43.84747058545955" lon="12.477842845221659"><ele>531.8333333333334</ele><time>2026-04-04T08:00:42Z</time></trkpt><trkpt lat="43.84742471526171" lon="12.477682472444128"><ele>529.6666666666666</ele><time>2026-04-04T08:00:44Z</time></trkpt><trkpt lat="43.847373379349655" lon="12.477621874633057"><ele>527.5</ele><time>2026-04-04T08:00:45Z</time></trkpt><trkpt lat="43.847317075344804" lon="12.477562814452293"><ele>525.3333333333333</ele><time>2026-04-04T08:00:46Z</time></trkpt><trkpt lat="43.847225743839495" lon="12.477545360022706"><ele>523.1666666666666</ele><time>2026-04-04T08:00:47Z</time></trkpt><trkpt lat="43.84714668237174" lon="12.47754972659344"><ele>521.0</ele><time>2026-04-04T08:00:48Z</time></trkpt><trkpt lat="43.84706720303178" lon="12.477554408501604"><ele>521.0</ele><time>2026-04-04T08:00:49Z</time></trkpt><trkpt lat="43.846971372296615" lon="12.477561317670695"><ele>521.0</ele><time>2026-04-04T08:00:50Z</time></trkpt><trkpt lat="43.84687183895141" lon="12.477559323244153"><ele>521.0</ele><time>2026-04-04T08:00:51Z</time></trkpt><trkpt lat="43.846778666592925" lon="12.477540747195176"><ele>521.0</ele><time>2026-04-04T08:00:52Z</time></trkpt><trkpt lat="43.84668784824235" lon="12.477511408469251"><ele>521.0</ele><time>2026-04-04T08:00:53Z</time></trkpt><trkpt lat="43.84660338560645" lon="12.47747553734022"><ele>520.3333333333333</ele><time>2026-04-04T08:00:54Z</time></trkpt><trkpt lat="43.846523199796714" lon="12.47743450127893"><ele>519.6666666666666</ele><time>2026-04-04T08:00:55Z</time></trkpt><trkpt lat="43.84643012896762" lon="12.477369380933244"><ele>519.0</ele><time>2026-04-04T08:00:56Z</time></trkpt><trkpt lat="43.846352785730396" lon="12.477293828701335"><ele>518.3333333333334</ele><time>2026-04-04T08:00:57Z</time></trkpt><trkpt lat="43.846291226074904" lon="12.477243019873583"><ele>517.6666666666667</ele><time>2026-04-04T08:00:58Z</time></trkpt><trkpt lat="43.8462684107031" lon="12.477149301392348"><ele>517.0</ele><time>2026-04-04T08:00:59Z</time></trkpt><trkpt lat="43.84627517091795" lon="12.476937973715449"><ele>515.6666666666667</ele><time>2026-04-04T08:01:01Z</time></trkpt><trkpt lat="43.84627853634343" lon="12.476816538818074"><ele>514.3333333333334</ele><time>2026-04-04T08:01:02Z</time></trkpt><trkpt lat="43.84626958984231" lon="12.476708085634082"><ele>513.0</ele><time>2026-04-04T08:01:03Z</time></trkpt><trkpt lat="43.846256115010064" lon="12.476619105392615"><ele>511.66666666666663</ele><time>2026-04-04T08:01:04Z</time></trkpt><trkpt lat="43.846238641387046" lon="12.476516108693648"><ele>510.3333333333333</ele><time>2026-04-04T08:01:05Z</time></trkpt><trkpt lat="43.846223716892545" lon="12.476423665125845"><ele>509.0</ele><time>2026-04-04T08:01:06Z</time></trkpt><trkpt lat="43.84618424795167" lon="12.476293479954956"><ele>508.4</ele><time>2026-04-04T08:01:07Z</time></trkpt><trkpt lat="43.84613863301231" lon="12.476156480832968"><ele>507.79999999999995</ele><time>2026-04-04T08:01:08Z</time></trkpt><trkpt lat="43.84609616543431" lon="12.476045289835437"><ele>507.20000000000005</ele><time>2026-04-04T08:01:09Z</time></trkpt><trkpt lat="43.846062201114286" lon="12.475935913113325"><ele>506.6</ele><time>2026-04-04T08:01:10Z</time></trkpt><trkpt lat="43.846013121704786" lon="12.475839512659078"><ele>506.0</ele><time>2026-04-04T08:01:11Z</time></trkpt><trkpt lat="43.84595932434858" lon="12.475750601862316"><ele>505.99999999999994</ele><time>2026-04-04T08:01:12Z</time></trkpt><trkpt lat="43.84589552217015" lon="12.475680214112646"><ele>506.0</ele><time>2026-04-04T08:01:13Z</time></trkpt><trkpt lat="43.84581048322126" lon="12.475601565545908"><ele>506.0</ele><time>2026-04-04T08:01:14Z</time></trkpt><trkpt lat="43.84575792258774" lon="12.475544917205243"><ele>506.0</ele><time>2026-04-04T08:01:14.999Z</time></trkpt><trkpt lat="43.845699175846235" lon="12.475468008874374"><ele>505.99999999999994</ele><time>2026-04-04T08:01:16.999Z</time></trkpt><trkpt lat="43.84565021803749" lon="12.475384673961983"><ele>506.0</ele><time>2026-04-04T08:01:18.999Z</time></trkpt><trkpt lat="43.845650160967" lon="12.47529020707459"><ele>504.6</ele><time>2026-04-04T08:01:21.999Z</time></trkpt><trkpt lat="43.84556599723987" lon="12.475254594384255"><ele>503.20000000000005</ele><time>2026-04-04T08:01:46.999Z</time></trkpt><trkpt lat="43.84549046649263" lon="12.475289720275407"><ele>501.79999999999995</ele><time>2026-04-04T08:01:47.999Z</time></trkpt><trkpt lat="43.845394617070056" lon="12.475319530711124"><ele>500.4</ele><time>2026-04-04T08:01:48.999Z</time></trkpt><trkpt lat="43.84530071130885" lon="12.475368786156945"><ele>499.0</ele><time>2026-04-04T08:01:49.999Z</time></trkpt><trkpt lat="43.845214201052535" lon="12.475430353908157"><ele>498.79999999999995</ele><time>2026-04-04T08:01:50.999Z</time></trkpt><trkpt lat="43.84515843037117" lon="12.47552618186999"><ele>498.59999999999997</ele><time>2026-04-04T08:01:51.999Z</time></trkpt><trkpt lat="43.84510491906354" lon="12.47561186397055"><ele>498.4</ele><time>2026-04-04T08:01:52.999Z</time></trkpt><trkpt lat="43.84507203254463" lon="12.475732887195988"><ele>498.2</ele><time>2026-04-04T08:01:53.999Z</time></trkpt><trkpt lat="43.84502054898366" lon="12.475863880466727"><ele>498.0</ele><time>2026-04-04T08:01:54.999Z</time></trkpt><trkpt lat="43.844981236963726" lon="12.475990662194896"><ele>498.0</ele><time>2026-04-04T08:01:55.999Z</time></trkpt><trkpt lat="43.84493531979749" lon="12.47610194894503"><ele>497.99999999999994</ele><time>2026-04-04T08:01:56.999Z</time></trkpt><trkpt lat="43.844866939691954" lon="12.476185557972055"><ele>497.99999999999994</ele><time>2026-04-04T08:01:57.999Z</time></trkpt><trkpt lat="43.84478651041306" lon="12.476289880067442"><ele>498.0</ele><time>2026-04-04T08:01:58.999Z</time></trkpt><trkpt lat="43.8447188962389" lon="12.47641142540186"><ele>498.0</ele><time>2026-04-04T08:01:59.999Z</time></trkpt><trkpt lat="43.84464370761342" lon="12.476524155612"><ele>497.79999999999995</ele><time>2026-04-04T08:02:00.999Z</time></trkpt><trkpt lat="43.844573160156145" lon="12.476661204594329"><ele>497.59999999999997</ele><time>2026-04-04T08:02:01.999Z</time></trkpt><trkpt lat="43.84450921362244" lon="12.476791291570104"><ele>497.40000000000003</ele><time>2026-04-04T08:02:02.999Z</time></trkpt><trkpt lat="43.844444811517384" lon="12.476902849029848"><ele>497.20000000000005</ele><time>2026-04-04T08:02:03.999Z</time></trkpt><trkpt lat="43.84439225064254" lon="12.477009435327494"><ele>497.0</ele><time>2026-04-04T08:02:04.999Z</time></trkpt><trkpt lat="43.84435419728094" lon="12.477115660842559"><ele>495.66666666666663</ele><time>2026-04-04T08:02:05.999Z</time></trkpt><trkpt lat="43.84431559063902" lon="12.477211883457867"><ele>494.3333333333333</ele><time>2026-04-04T08:02:06.999Z</time></trkpt><trkpt lat="43.844274712690215" lon="12.477298184552398"><ele>493.0</ele><time>2026-04-04T08:02:07.999Z</time></trkpt><trkpt lat="43.8442216420811" lon="12.477376528364204"><ele>491.66666666666663</ele><time>2026-04-04T08:02:08.998Z</time></trkpt><trkpt lat="43.8441315278162" lon="12.47738811556789"><ele>490.3333333333333</ele><time>2026-04-04T08:02:09.998Z</time></trkpt><trkpt lat="43.84404844555523" lon="12.477408440759728"><ele>489.0</ele><time>2026-04-04T08:02:10.998Z</time></trkpt><trkpt lat="43.843946426745326" lon="12.477440382263866"><ele>487.3333333333333</ele><time>2026-04-04T08:02:11.998Z</time></trkpt><trkpt lat="43.84386311055678" lon="12.477494649714815"><ele>485.66666666666663</ele><time>2026-04-04T08:02:12.998Z</time></trkpt><trkpt lat="43.84378875574778" lon="12.477513820531435"><ele>484.0</ele><time>2026-04-04T08:02:13.998Z</time></trkpt><trkpt lat="43.843700134795505" lon="12.477571306641995"><ele>482.3333333333333</ele><time>2026-04-04T08:02:14.998Z</time></trkpt><trkpt lat="43.84361970166811" lon="12.477626333693275"><ele>480.66666666666663</ele><time>2026-04-04T08:02:15.998Z</time></trkpt><trkpt lat="43.84353618372472" lon="12.477669675553749"><ele>479.0</ele><time>2026-04-04T08:02:16.998Z</time></trkpt><trkpt lat="43.84345933116203" lon="12.477694891416013"><ele>477.99999999999994</ele><time>2026-04-04T08:02:17.998Z</time></trkpt><trkpt lat="43.843385014304914" lon="12.477711196436124"><ele>477.0</ele><time>2026-04-04T08:02:18.998Z</time></trkpt><trkpt lat="43.84331459761107" lon="12.477723658425283"><ele>476.0</ele><time>2026-04-04T08:02:19.998Z</time></trkpt><trkpt lat="43.84324338590111" lon="12.477728977183581"><ele>475.0</ele><time>2026-04-04T08:02:20.998Z</time></trkpt><trkpt lat="43.84316301510724" lon="12.477728158274578"><ele>473.99999999999994</ele><time>2026-04-04T08:02:21.998Z</time></trkpt><trkpt lat="43.843073955132425" lon="12.477720253696651"><ele>473.0</ele><time>2026-04-04T08:02:22.998Z</time></trkpt><trkpt lat="43.84298994037843" lon="12.477711962624438"><ele>473.0</ele><time>2026-04-04T08:02:23.998Z</time></trkpt><trkpt lat="43.84290093777451" lon="12.47770248423071"><ele>472.99999999999994</ele><time>2026-04-04T08:02:24.998Z</time></trkpt><trkpt lat="43.84279754304668" lon="12.477692119888157"><ele>472.99999999999994</ele><time>2026-04-04T08:02:25.998Z</time></trkpt><trkpt lat="43.84269993692693" lon="12.477684972991003"><ele>473.0</ele><time>2026-04-04T08:02:26.998Z</time></trkpt><trkpt lat="43.842595384446184" lon="12.477677317475722"><ele>473.0</ele><time>2026-04-04T08:02:27.998Z</time></trkpt><trkpt lat="43.842488526107836" lon="12.47766750479694"><ele>471.59999999999997</ele><time>2026-04-04T08:02:28.998Z</time></trkpt><trkpt lat="43.84238096836247" lon="12.477660921428123"><ele>470.19999999999993</ele><time>2026-04-04T08:02:29.998Z</time></trkpt><trkpt lat="43.84227808406121" lon="12.477684110701725"><ele>468.8</ele><time>2026-04-04T08:02:30.998Z</time></trkpt><trkpt lat="43.842179196807884" lon="12.477687938576125"><ele>467.4</ele><time>2026-04-04T08:02:31.998Z</time></trkpt><trkpt lat="43.8420705863806" lon="12.477694845670692"><ele>466.0</ele><time>2026-04-04T08:02:32.998Z</time></trkpt><trkpt lat="43.841957745773165" lon="12.477690338547356"><ele>466.0</ele><time>2026-04-04T08:02:33.998Z</time></trkpt><trkpt lat="43.841850791594844" lon="12.477709321831446"><ele>466.0</ele><time>2026-04-04T08:02:34.998Z</time></trkpt><trkpt lat="43.84177069575766" lon="12.47775172421005"><ele>466.0</ele><time>2026-04-04T08:02:35.998Z</time></trkpt><trkpt lat="43.84170003049781" lon="12.47777760193494"><ele>466.0</ele><time>2026-04-04T08:02:36.998Z</time></trkpt><trkpt lat="43.841629341252684" lon="12.477792461538257"><ele>466.0</ele><time>2026-04-04T08:02:37.998Z</time></trkpt><trkpt lat="43.84152575474903" lon="12.477858407400094"><ele>464.0</ele><time>2026-04-04T08:02:39.998Z</time></trkpt><trkpt lat="43.841459295645954" lon="12.477896118433582"><ele>464.0</ele><time>2026-04-04T08:02:41.998Z</time></trkpt></trkseg></trk></gpx>